Time;durP1;ratioP1;P1;durP2;ratioP2;P2;SDS_P1;SDS_P2;PMS_P1;PMS_P2;Temp;Humidity;BMP_temperature;BMP_pressure;BME280_temperature;BME280_humidity;BME280_pressure;Samples;Min_cycle;Max_cycle;Signal;HPM_P1;HPM_P2
2022/01/31 00:00:04;;;;;;;13.23;3.57;;;;;;;1.27;89.85;97123.38;5063626;28;20188;-66
2022/01/31 00:02:29;;;;;;;14.07;4.67;;;;;;;1.42;88.66;97120.97;5056459;28;20186;-65
2022/01/31 00:04:54;;;;;;;9.13;3.87;;;;;;;1.46;88.98;97132.56;5056247;28;20232;-68
2022/01/31 00:07:20;;;;;;;12.73;3.93;;;;;;;1.37;88.98;97136.13;5056458;28;20220;-65
2022/01/31 00:09:45;;;;;;;7.10;3.43;;;;;;;1.41;89.35;97125.31;5051040;28;20281;-65
2022/01/31 00:12:13;;;;;;;10.43;3.70;;;;;;;1.58;88.78;97128.72;5064921;28;20181;-65
2022/01/31 00:14:42;;;;;;;10.80;3.20;;;;;;;1.65;87.94;97114.19;5074606;28;20276;-65
2022/01/31 00:17:09;;;;;;;9.10;3.67;;;;;;;1.76;87.79;97108.69;5054485;28;20237;-66
2022/01/31 00:19:36;;;;;;;10.47;3.50;;;;;;;1.86;87.16;97108.50;5070798;28;20184;-66
2022/01/31 00:22:03;;;;;;;6.27;3.20;;;;;;;1.76;87.44;97113.84;5074914;28;20228;-66
2022/01/31 00:24:28;;;;;;;11.13;3.10;;;;;;;1.81;87.46;97108.19;5064238;28;20578;-65
2022/01/31 00:26:54;;;;;;;6.33;3.40;;;;;;;1.83;87.27;97109.66;5055662;28;20335;-65
2022/01/31 00:29:19;;;;;;;11.57;3.33;;;;;;;1.90;87.41;97107.19;5062436;28;20169;-66
2022/01/31 00:31:45;;;;;;;15.40;3.60;;;;;;;2.03;86.64;97089.41;5070378;28;20534;-66
2022/01/31 00:34:10;;;;;;;12.20;3.20;;;;;;;2.20;85.70;97078.06;5074587;28;20181;-66
2022/01/31 00:36:35;;;;;;;11.10;3.80;;;;;;;2.24;85.91;97063.00;5074162;28;20189;-65
2022/01/31 00:39:02;;;;;;;8.80;3.53;;;;;;;2.09;86.80;97063.72;5070161;28;20249;-68
2022/01/31 00:41:28;;;;;;;10.50;3.53;;;;;;;2.08;86.61;97071.63;5055884;28;20189;-66
2022/01/31 00:44:14;;;;;;;14.97;3.90;;;;;;;1.95;87.70;97079.09;5074700;28;20195;-66
2022/01/31 00:46:42;;;;;;;9.10;3.57;;;;;;;1.98;86.56;97077.00;5056388;28;20673;-66
2022/01/31 00:49:22;;;;;;;10.07;3.63;;;;;;;2.09;86.49;97086.16;5060161;28;20191;-66
2022/01/31 00:51:47;;;;;;;14.37;3.43;;;;;;;2.17;86.82;97070.66;5074779;28;20178;-65
2022/01/31 00:54:13;;;;;;;13.40;3.83;;;;;;;2.20;86.34;97047.03;5060606;28;20542;-65
2022/01/31 00:56:38;;;;;;;12.63;3.43;;;;;;;2.18;86.13;97036.03;5054471;28;20245;-66
2022/01/31 00:59:03;;;;;;;6.70;3.03;;;;;;;2.28;86.23;97044.41;5036750;28;20181;-66
2022/01/31 01:01:28;;;;;;;9.20;4.10;;;;;;;2.26;85.99;97030.03;5039121;28;20755;-66
2022/01/31 01:03:54;;;;;;;10.80;3.93;;;;;;;2.11;86.85;97016.22;5064217;28;20635;-65
2022/01/31 01:06:19;;;;;;;14.07;4.00;;;;;;;2.20;86.40;97005.66;5054587;28;20592;-65
2022/01/31 01:08:45;;;;;;;12.70;3.93;;;;;;;1.98;87.49;97004.63;5054895;28;20257;-65
2022/01/31 01:11:10;;;;;;;8.30;3.90;;;;;;;1.97;88.14;97007.38;5054362;28;20186;-67
2022/01/31 01:13:35;;;;;;;13.83;4.37;;;;;;;2.13;87.24;96991.78;5065047;28;20182;-66
2022/01/31 01:16:01;;;;;;;8.90;3.80;;;;;;;2.07;87.64;96980.34;5054145;28;20212;-66
2022/01/31 01:18:26;;;;;;;7.50;3.70;;;;;;;2.14;86.87;96984.84;5036439;28;20661;-65
2022/01/31 01:20:51;;;;;;;11.87;5.07;;;;;;;2.15;87.20;96981.28;5054061;28;20190;-66
2022/01/31 01:23:17;;;;;;;9.80;4.03;;;;;;;2.21;87.18;96981.41;5064796;28;20345;-66
2022/01/31 01:25:42;;;;;;;9.90;4.27;;;;;;;2.05;87.98;96978.91;5055618;28;20296;-66
2022/01/31 01:28:08;;;;;;;9.60;4.17;;;;;;;2.11;87.78;96977.44;5067625;28;20652;-65
2022/01/31 01:30:33;;;;;;;14.30;4.30;;;;;;;2.17;86.80;96972.41;5074521;28;20177;-66
2022/01/31 01:33:05;;;;;;;11.20;3.60;;;;;;;2.19;86.80;96948.94;5071969;28;20652;-65
2022/01/31 01:35:33;;;;;;;9.63;4.17;;;;;;;2.20;87.27;96927.28;5054275;28;20197;-66
2022/01/31 01:38:04;;;;;;;7.17;3.77;;;;;;;2.17;87.14;96905.19;5055073;28;20213;-66
2022/01/31 01:40:30;;;;;;;7.57;3.63;;;;;;;2.20;86.93;96915.16;5054363;28;20604;-66
2022/01/31 01:42:55;;;;;;;9.43;4.00;;;;;;;2.22;86.49;96908.06;5036348;28;20193;-66
2022/01/31 01:45:21;;;;;;;10.07;3.50;;;;;;;2.25;87.15;96915.44;5053739;28;20627;-66
2022/01/31 01:47:47;;;;;;;10.23;4.00;;;;;;;2.16;87.29;96913.91;5053786;28;20307;-66
2022/01/31 01:50:12;;;;;;;7.40;3.90;;;;;;;2.12;86.99;96901.50;5063760;28;20261;-66
2022/01/31 01:52:38;;;;;;;8.47;3.53;;;;;;;2.21;86.87;96866.84;5057170;28;20186;-66
2022/01/31 01:55:04;;;;;;;9.83;3.67;;;;;;;2.20;86.77;96845.34;5073417;28;20277;-66
2022/01/31 01:57:29;;;;;;;10.87;4.07;;;;;;;2.22;86.96;96825.31;5055861;28;20229;-66
2022/01/31 01:59:57;;;;;;;8.67;3.40;;;;;;;2.20;87.01;96805.78;5073392;28;20196;-66
2022/01/31 02:02:22;;;;;;;10.17;3.80;;;;;;;2.17;86.79;96806.94;5055512;28;20685;-66
2022/01/31 02:04:48;;;;;;;12.23;4.63;;;;;;;2.15;86.97;96792.56;5053678;28;20201;-66
2022/01/31 02:07:13;;;;;;;8.43;3.77;;;;;;;2.20;86.88;96788.47;5053541;28;20256;-66
2022/01/31 02:09:44;;;;;;;14.70;4.17;;;;;;;2.10;86.72;96782.75;5053559;28;20331;-66
2022/01/31 02:12:11;;;;;;;14.00;4.60;;;;;;;2.11;87.23;96773.22;5069167;28;20173;-66
2022/01/31 02:14:37;;;;;;;9.70;4.13;;;;;;;2.13;87.25;96768.66;5072796;28;20189;-66
2022/01/31 02:17:03;;;;;;;10.03;4.20;;;;;;;2.06;87.73;96755.66;5066372;28;20555;-66
2022/01/31 02:19:28;;;;;;;9.93;3.63;;;;;;;2.11;87.34;96740.41;5052828;28;20189;-66
2022/01/31 02:21:54;;;;;;;15.30;4.47;;;;;;;2.06;87.87;96748.66;5066275;28;20185;-66
2022/01/31 02:24:20;;;;;;;11.63;4.13;;;;;;;2.02;88.05;96747.41;5054507;28;20185;-69
2022/01/31 02:26:46;;;;;;;11.97;4.13;;;;;;;2.02;88.38;96738.84;5071738;28;20256;-66
2022/01/31 02:29:12;;;;;;;11.00;4.27;;;;;;;1.99;87.67;96746.97;5072798;28;20214;-66
2022/01/31 02:31:46;;;;;;;11.83;4.73;;;;;;;1.91;87.71;96719.41;5057319;28;20209;-66
2022/01/31 02:34:11;;;;;;;8.80;4.17;;;;;;;1.90;88.32;96711.81;5054220;28;20300;-66
2022/01/31 02:36:38;;;;;;;8.57;4.20;;;;;;;1.84;88.04;96720.28;5053005;28;20200;-66
2022/01/31 02:39:04;;;;;;;10.67;4.33;;;;;;;1.89;88.40;96726.53;5052846;28;20623;-66
2022/01/31 02:41:30;;;;;;;11.53;3.90;;;;;;;1.95;88.28;96722.47;5066638;28;20652;-66
2022/01/31 02:43:56;;;;;;;8.80;3.53;;;;;;;1.97;88.08;96723.88;5070781;28;20228;-66
2022/01/31 02:46:25;;;;;;;12.37;3.80;;;;;;;1.93;87.88;96729.56;5052796;28;20315;-67
2022/01/31 02:48:52;;;;;;;6.10;4.17;;;;;;;1.86;88.52;96720.91;5052868;28;20200;-66
2022/01/31 02:51:22;;;;;;;9.07;3.97;;;;;;;1.87;88.54;96718.16;5052722;28;20185;-66
2022/01/31 02:53:48;;;;;;;10.03;4.40;;;;;;;2.02;87.73;96703.47;5052805;28;20189;-66
2022/01/31 02:56:13;;;;;;;14.43;4.30;;;;;;;1.92;88.09;96681.44;5069847;28;20212;-66
2022/01/31 02:58:39;;;;;;;15.97;3.93;;;;;;;2.09;87.66;96675.97;5072448;28;20237;-66
2022/01/31 03:01:05;;;;;;;7.03;4.23;;;;;;;1.99;87.75;96661.69;5051660;28;20182;-66
2022/01/31 03:03:30;;;;;;;7.63;3.90;;;;;;;2.04;87.92;96646.44;5072604;28;20635;-66
2022/01/31 03:05:56;;;;;;;11.13;3.90;;;;;;;1.98;87.08;96647.16;5056090;28;20284;-66
2022/01/31 03:08:23;;;;;;;9.57;4.13;;;;;;;2.02;87.76;96636.28;5052771;28;20185;-66
2022/01/31 03:10:48;;;;;;;7.47;3.57;;;;;;;2.05;86.53;96640.31;5064619;28;20261;-66
2022/01/31 03:13:13;;;;;;;8.87;4.10;;;;;;;2.04;87.65;96633.53;5034566;28;20754;-66
2022/01/31 03:15:39;;;;;;;10.43;3.53;;;;;;;1.97;87.14;96624.88;5052351;28;20182;-66
2022/01/31 03:18:05;;;;;;;9.83;4.60;;;;;;;1.93;88.26;96629.59;5051929;28;20209;-66
2022/01/31 03:20:31;;;;;;;10.43;4.67;;;;;;;1.90;87.99;96621.38;5057549;28;20177;-66
2022/01/31 03:22:57;;;;;;;9.87;4.07;;;;;;;1.80;89.37;96605.34;5072362;28;20272;-66
2022/01/31 03:25:23;;;;;;;11.50;4.03;;;;;;;1.87;88.05;96598.50;5054137;28;20569;-68
2022/01/31 03:27:49;;;;;;;7.50;3.77;;;;;;;1.94;87.53;96581.31;5054161;28;20188;-66
2022/01/31 03:30:21;;;;;;;7.43;4.47;;;;;;;1.88;88.58;96577.66;5068862;28;20177;-66
2022/01/31 03:32:47;;;;;;;8.03;3.40;;;;;;;1.87;88.40;96559.72;5052270;28;20182;-66
2022/01/31 03:35:14;;;;;;;11.90;4.33;;;;;;;1.98;87.78;96551.53;5052480;28;20182;-66
2022/01/31 03:37:40;;;;;;;8.73;4.13;;;;;;;1.95;87.71;96538.97;5052421;28;20205;-66
2022/01/31 03:40:07;;;;;;;14.07;4.50;;;;;;;1.71;89.13;96527.13;5074188;28;20298;-66
2022/01/31 03:42:33;;;;;;;10.70;4.63;;;;;;;1.92;87.63;96516.88;5055852;28;20186;-66
2022/01/31 03:44:58;;;;;;;7.90;4.10;;;;;;;1.92;88.01;96498.78;5056292;28;20231;-66
2022/01/31 03:47:24;;;;;;;10.97;4.30;;;;;;;1.96;87.36;96492.28;5056485;28;20299;-66
2022/01/31 03:49:50;;;;;;;5.23;3.37;;;;;;;1.93;87.97;96515.91;5066659;28;20177;-66
2022/01/31 03:52:16;;;;;;;6.47;3.60;;;;;;;1.80;87.92;96536.38;5057696;28;20281;-67
2022/01/31 03:54:42;;;;;;;13.43;4.07;;;;;;;1.81;88.14;96561.25;5057655;28;20256;-66
2022/01/31 03:57:07;;;;;;;10.60;4.67;;;;;;;1.88;88.16;96559.56;5073648;28;20287;-66
2022/01/31 03:59:33;;;;;;;8.83;4.43;;;;;;;1.81;89.10;96535.41;5066808;28;20535;-66
2022/01/31 04:01:59;;;;;;;8.23;4.60;;;;;;;2.12;87.08;96542.97;5056018;28;20214;-66
2022/01/31 04:04:24;;;;;;;10.30;4.83;;;;;;;2.09;87.50;96543.34;5075534;28;20213;-65
2022/01/31 04:06:51;;;;;;;10.03;4.37;;;;;;;2.04;87.72;96538.72;5055523;28;20193;-66
2022/01/31 04:09:16;;;;;;;8.80;4.80;;;;;;;1.97;88.26;96530.06;5055473;28;20185;-66
2022/01/31 04:11:43;;;;;;;15.90;4.47;;;;;;;1.97;87.64;96532.66;5055787;28;20190;-66
2022/01/31 04:14:09;;;;;;;6.93;4.30;;;;;;;1.99;87.84;96532.47;5068008;28;20216;-66
2022/01/31 04:16:35;;;;;;;9.00;4.40;;;;;;;2.00;88.09;96529.72;5074942;28;20189;-66
2022/01/31 04:19:00;;;;;;;12.30;4.90;;;;;;;2.15;87.19;96526.31;5074525;28;20324;-66
2022/01/31 04:21:25;;;;;;;13.37;4.40;;;;;;;2.21;86.88;96528.97;5072207;28;20239;-66
2022/01/31 04:23:51;;;;;;;13.90;4.60;;;;;;;2.20;87.15;96516.22;5063129;28;20205;-66
2022/01/31 04:26:18;;;;;;;10.23;4.60;;;;;;;2.17;87.88;96508.84;5075242;28;20200;-66
2022/01/31 04:28:50;;;;;;;9.27;4.63;;;;;;;2.19;86.86;96517.19;5075181;28;20192;-67
2022/01/31 04:33:46;;;;;;;10.50;4.20;;;;;;;2.27;86.82;96496.44;5075223;28;20178;-66
2022/01/31 04:36:14;;;;;;;11.40;4.70;;;;;;;2.21;87.03;96494.56;5063524;28;20221;-66
2022/01/31 04:38:40;;;;;;;9.77;4.00;;;;;;;2.01;87.94;96487.34;5054921;28;20210;-66
2022/01/31 04:41:06;;;;;;;9.83;4.53;;;;;;;2.05;88.91;96477.47;5057276;28;20234;-66
2022/01/31 04:43:32;;;;;;;9.13;4.20;;;;;;;2.33;87.71;96475.81;5070397;28;20193;-67
2022/01/31 04:46:00;;;;;;;9.97;4.70;;;;;;;2.32;87.80;96463.06;5064358;28;20268;-67
2022/01/31 04:48:26;;;;;;;7.50;3.93;;;;;;;2.25;88.50;96459.59;5061534;28;20186;-66
2022/01/31 04:50:52;;;;;;;8.10;4.27;;;;;;;2.38;87.42;96445.03;5054917;28;20638;-67
2022/01/31 04:53:17;;;;;;;8.00;4.27;;;;;;;2.23;88.05;96439.09;5040770;28;20174;-66
2022/01/31 04:55:43;;;;;;;8.73;4.20;;;;;;;2.24;88.76;96427.78;5067375;28;20186;-66
2022/01/31 04:58:09;;;;;;;7.77;4.40;;;;;;;2.28;88.76;96410.94;5054625;28;20202;-66
2022/01/31 05:00:35;;;;;;;10.10;4.03;;;;;;;2.38;88.33;96390.72;5036890;28;20269;-67
2022/01/31 05:03:00;;;;;;;9.33;4.23;;;;;;;2.31;88.37;96391.66;5056782;28;20214;-66
2022/01/31 05:05:26;;;;;;;11.83;4.70;;;;;;;2.29;88.08;96386.66;5074600;28;20193;-67
2022/01/31 05:07:54;;;;;;;7.97;4.03;;;;;;;2.42;87.89;96358.34;5074796;28;20206;-66
2022/01/31 05:10:20;;;;;;;8.53;4.07;;;;;;;2.35;87.64;96365.22;5067689;28;20190;-66
2022/01/31 05:12:45;;;;;;;8.27;4.20;;;;;;;2.48;88.30;96362.78;5054431;28;20193;-66
2022/01/31 05:15:11;;;;;;;8.40;3.57;;;;;;;2.47;88.11;96343.06;5056367;28;20186;-66
2022/01/31 05:17:36;;;;;;;12.47;4.23;;;;;;;2.41;88.29;96330.06;5073432;28;20306;-66
2022/01/31 05:20:03;;;;;;;6.33;3.53;;;;;;;2.51;87.88;96322.78;5074221;28;20185;-66
2022/01/31 05:22:29;;;;;;;9.60;4.07;;;;;;;2.24;88.31;96300.28;5074265;28;20185;-66
2022/01/31 05:24:54;;;;;;;5.60;3.60;;;;;;;2.36;88.85;96291.84;5056542;28;20190;-66
2022/01/31 05:27:20;;;;;;;10.20;3.67;;;;;;;2.36;88.50;96280.69;5038530;28;20201;-66
2022/01/31 05:29:45;;;;;;;6.73;3.67;;;;;;;2.45;88.55;96258.91;5068901;28;20209;-67
2022/01/31 05:32:11;;;;;;;12.43;3.73;;;;;;;2.36;88.25;96260.81;5054004;28;20185;-66
2022/01/31 05:34:36;;;;;;;17.70;3.90;;;;;;;2.18;89.29;96264.84;5053554;28;20190;-66
2022/01/31 05:37:01;;;;;;;8.23;3.53;;;;;;;2.34;89.07;96267.19;5054062;28;20194;-67
2022/01/31 05:39:27;;;;;;;8.23;3.60;;;;;;;2.38;89.07;96265.81;5060692;28;20229;-66
2022/01/31 05:41:53;;;;;;;8.90;3.93;;;;;;;2.34;88.91;96251.66;5053996;28;20181;-66
2022/01/31 05:44:20;;;;;;;8.27;3.43;;;;;;;2.38;88.30;96256.28;5061730;28;20545;-66
2022/01/31 05:46:45;;;;;;;11.30;3.70;;;;;;;2.34;89.17;96252.44;5072511;28;20239;-66
2022/01/31 05:49:11;;;;;;;13.70;3.67;;;;;;;2.40;88.55;96248.31;5072883;28;20185;-66
2022/01/31 05:51:48;;;;;;;4.47;3.07;;;;;;;2.39;89.25;96234.59;5055158;28;20189;-66
2022/01/31 05:54:14;;;;;;;6.40;2.93;;;;;;;2.58;88.04;96234.91;5054094;28;20169;-66
2022/01/31 05:56:39;;;;;;;6.97;3.23;;;;;;;2.47;88.09;96224.09;5053963;28;20204;-66
2022/01/31 05:59:04;;;;;;;7.77;3.27;;;;;;;2.56;87.82;96201.47;5053013;28;20260;-66
2022/01/31 06:01:30;;;;;;;5.20;3.20;;;;;;;2.60;87.22;96207.88;5067586;28;20178;-66
2022/01/31 06:03:55;;;;;;;6.87;3.23;;;;;;;2.59;87.32;96201.09;5053484;28;20181;-66
2022/01/31 06:06:20;;;;;;;4.77;2.53;;;;;;;2.64;87.49;96196.13;5068390;28;20181;-66
2022/01/31 06:08:46;;;;;;;7.07;3.27;;;;;;;2.77;86.92;96182.47;5072725;28;20236;-66
2022/01/31 06:11:11;;;;;;;5.10;2.90;;;;;;;2.71;86.46;96189.22;5056521;28;20193;-66
2022/01/31 06:13:37;;;;;;;9.83;3.10;;;;;;;2.83;85.93;96179.91;5072431;28;20181;-67
2022/01/31 06:16:02;;;;;;;5.23;3.10;;;;;;;2.84;86.23;96173.72;5070488;28;20200;-67
2022/01/31 06:18:28;;;;;;;6.20;2.93;;;;;;;2.86;85.78;96169.16;5053273;28;20201;-66
2022/01/31 06:20:53;;;;;;;6.60;2.70;;;;;;;2.80;86.27;96148.44;5072846;28;20181;-66
2022/01/31 06:23:19;;;;;;;6.27;2.70;;;;;;;2.79;86.96;96147.63;5072541;28;20197;-66
2022/01/31 06:25:45;;;;;;;9.80;3.03;;;;;;;2.79;87.94;96147.63;5072106;28;20188;-66
2022/01/31 06:28:10;;;;;;;7.23;2.90;;;;;;;2.78;88.81;96159.00;5053213;28;20181;-66
2022/01/31 06:30:36;;;;;;;10.17;3.17;;;;;;;2.79;90.03;96152.81;5053771;28;20236;-66
2022/01/31 06:33:02;;;;;;;3.63;2.60;;;;;;;2.72;90.72;96146.84;5072668;28;20227;-66
2022/01/31 06:35:27;;;;;;;8.47;3.03;;;;;;;2.69;92.40;96144.63;5072197;28;20196;-66
2022/01/31 06:37:53;;;;;;;8.87;3.03;;;;;;;2.65;92.92;96145.19;5065385;28;20208;-67
2022/01/31 06:40:18;;;;;;;5.53;2.63;;;;;;;2.59;94.83;96138.19;5072086;28;20244;-66
2022/01/31 06:42:44;;;;;;;5.23;2.90;;;;;;;2.53;95.13;96123.44;5071857;28;20193;-67
2022/01/31 06:45:10;;;;;;;9.03;3.30;;;;;;;2.46;96.35;96131.97;5072192;28;20185;-66
2022/01/31 06:47:35;;;;;;;8.30;3.40;;;;;;;2.44;96.08;96128.00;5057535;28;20662;-66
2022/01/31 06:50:04;;;;;;;6.33;3.50;;;;;;;2.37;98.01;96124.56;5053484;28;20186;-66
2022/01/31 06:52:33;;;;;;;5.83;3.40;;;;;;;2.34;98.89;96114.63;5052820;28;20557;-67
2022/01/31 06:55:02;;;;;;;8.33;3.90;;;;;;;2.37;100.00;96115.03;5052525;28;20264;-67
2022/01/31 06:57:33;;;;;;;6.10;3.23;;;;;;;2.27;100.00;96121.56;5042912;28;20229;-66
2022/01/31 07:00:03;;;;;;;7.17;3.20;;;;;;;2.24;100.00;96119.31;5035713;28;20228;-66
2022/01/31 07:02:28;;;;;;;8.33;3.53;;;;;;;2.25;100.00;96128.69;5064199;28;20254;-66
2022/01/31 07:04:54;;;;;;;7.27;3.13;;;;;;;2.35;100.00;96137.69;5063477;28;20643;-66
2022/01/31 07:07:19;;;;;;;8.30;3.60;;;;;;;2.38;100.00;96147.66;5064325;28;20204;-67
2022/01/31 07:09:44;;;;;;;7.67;4.00;;;;;;;2.39;100.00;96157.03;5070826;28;20272;-66
2022/01/31 07:12:12;;;;;;;10.70;3.20;;;;;;;2.29;100.00;96148.00;5062228;28;20244;-66
2022/01/31 07:14:38;;;;;;;8.03;3.90;;;;;;;2.27;100.00;96145.63;5052467;28;20178;-66
2022/01/31 07:17:05;;;;;;;7.00;3.63;;;;;;;2.32;100.00;96163.94;5051464;28;20209;-66
2022/01/31 07:19:34;;;;;;;9.87;3.40;;;;;;;2.46;100.00;96163.00;5052282;28;20189;-67
2022/01/31 07:22:00;;;;;;;7.80;3.67;;;;;;;2.42;100.00;96151.47;5060575;28;20173;-69
2022/01/31 07:26:52;;;;;;;9.83;3.80;;;;;;;2.49;100.00;96164.44;5052301;28;20276;-68
2022/01/31 07:29:19;;;;;;;7.03;3.90;;;;;;;2.49;100.00;96161.84;5052222;28;20181;-68
2022/01/31 07:31:45;;;;;;;8.00;3.83;;;;;;;2.52;100.00;96158.88;5057202;28;20184;-67
2022/01/31 07:34:13;;;;;;;7.87;4.27;;;;;;;2.45;100.00;96160.63;5061035;28;20773;-68
2022/01/31 07:36:38;;;;;;;7.23;3.77;;;;;;;2.41;100.00;96155.03;5052079;28;20177;-68
2022/01/31 07:39:04;;;;;;;8.37;4.37;;;;;;;2.40;100.00;96155.22;5052731;28;20200;-68
2022/01/31 07:41:31;;;;;;;12.80;4.30;;;;;;;2.48;100.00;96153.28;5066895;28;20541;-68
2022/01/31 07:43:56;;;;;;;10.37;4.47;;;;;;;2.49;100.00;96157.47;5051871;28;20182;-68
2022/01/31 07:46:21;;;;;;;8.03;3.90;;;;;;;2.41;100.00;96162.00;5051778;28;20277;-68
2022/01/31 07:48:49;;;;;;;7.70;3.83;;;;;;;2.42;100.00;96156.63;5061428;28;20189;-67
2022/01/31 07:51:16;;;;;;;8.23;4.10;;;;;;;4.18;100.00;96158.94;5071029;28;20184;-68
2022/01/31 07:53:42;;;;;;;7.30;4.37;;;;;;;3.50;100.00;96157.59;5071189;28;20188;-70
2022/01/31 07:56:08;;;;;;;7.10;4.00;;;;;;;3.22;100.00;96175.88;5071505;28;20186;-69
2022/01/31 07:58:35;;;;;;;7.63;3.93;;;;;;;3.03;100.00;96186.94;5069553;28;20221;-71
2022/01/31 08:01:01;;;;;;;7.87;3.90;;;;;;;2.90;100.00;96188.47;5064234;28;20251;-70
2022/01/31 08:03:26;;;;;;;7.93;3.70;;;;;;;2.88;100.00;96189.69;5071397;28;20575;-68
2022/01/31 08:05:52;;;;;;;7.80;2.97;;;;;;;2.75;100.00;96177.47;5070848;28;20211;-69
2022/01/31 08:08:17;;;;;;;8.57;3.03;;;;;;;2.76;100.00;96180.88;5071264;28;20542;-69
2022/01/31 08:10:43;;;;;;;6.70;3.17;;;;;;;2.75;100.00;96174.09;5056103;28;20546;-69
2022/01/31 08:13:09;;;;;;;5.33;2.60;;;;;;;2.83;100.00;96195.44;5052774;28;20614;-70
2022/01/31 08:15:45;;;;;;;3.50;2.77;;;;;;;2.68;100.00;96183.59;5055913;28;20186;-69
2022/01/31 08:18:11;;;;;;;2.73;2.37;;;;;;;2.84;100.00;96183.31;5057167;28;20202;-68
2022/01/31 08:20:37;;;;;;;2.30;2.10;;;;;;;2.86;100.00;96178.72;5055192;28;20181;-69
2022/01/31 08:23:02;;;;;;;2.53;2.30;;;;;;;2.87;100.00;96177.72;5065497;28;20194;-68
2022/01/31 08:25:29;;;;;;;1.93;1.83;;;;;;;3.02;100.00;96177.56;5064927;28;20289;-69
2022/01/31 08:28:00;;;;;;;4.57;2.10;;;;;;;2.99;100.00;96183.16;5061738;28;20186;-68
2022/01/31 08:30:36;;;;;;;7.70;2.07;;;;;;;3.03;100.00;96192.13;5070536;28;20169;-69
2022/01/31 08:33:12;;;;;;;3.20;2.00;;;;;;;2.91;100.00;96184.09;5055341;28;20173;-69
2022/01/31 08:35:50;;;;;;;3.47;2.20;;;;;;;2.95;100.00;96174.19;5070452;28;20464;-69
2022/01/31 08:38:19;;;;;;;2.67;2.00;;;;;;;3.05;100.00;96179.78;5055157;28;20293;-68
2022/01/31 08:40:45;;;;;;;2.53;2.03;;;;;;;2.97;100.00;96172.97;5063129;28;20240;-68
2022/01/31 08:43:12;;;;;;;2.40;1.80;;;;;;;3.20;100.00;96189.00;5073811;28;20269;-68
2022/01/31 08:45:37;;;;;;;1.70;1.40;;;;;;;3.22;100.00;96181.84;5073027;28;20633;-69
2022/01/31 08:48:04;;;;;;;1.77;1.50;;;;;;;3.17;100.00;96176.44;5072571;28;20219;-68
2022/01/31 08:50:29;;;;;;;1.07;1.07;;;;;;;3.14;100.00;96161.28;5056402;28;20292;-69
2022/01/31 08:52:55;;;;;;;1.20;1.10;;;;;;;3.15;100.00;96175.03;5036703;28;20220;-68
2022/01/31 08:55:21;;;;;;;2.33;1.17;;;;;;;3.04;100.00;96165.25;5069051;28;20269;-69
2022/01/31 08:57:52;;;;;;;1.40;1.30;;;;;;;3.11;100.00;96160.91;5064603;28;20247;-68
2022/01/31 09:00:18;;;;;;;1.77;1.20;;;;;;;3.24;100.00;96158.31;5057959;28;20174;-68
2022/01/31 09:02:52;;;;;;;1.30;1.20;;;;;;;3.26;100.00;96164.91;5058421;28;20554;-69
2022/01/31 09:05:18;;;;;;;2.27;1.30;;;;;;;3.23;100.00;96167.88;5054642;28;20177;-68
2022/01/31 09:07:43;;;;;;;1.43;1.20;;;;;;;3.45;100.00;96150.41;5056418;28;20240;-68
2022/01/31 09:10:09;;;;;;;1.47;1.27;;;;;;;3.57;99.90;96148.81;5069976;28;20673;-68
2022/01/31 09:12:36;;;;;;;1.00;1.00;;;;;;;3.56;98.79;96156.78;5066803;28;20189;-68
2022/01/31 09:15:03;;;;;;;1.10;1.10;;;;;;;3.67;98.26;96153.63;5065260;28;20235;-68
2022/01/31 09:17:28;;;;;;;1.53;1.40;;;;;;;3.76;97.52;96149.81;5054980;28;20415;-69
2022/01/31 09:19:54;;;;;;;1.00;1.00;;;;;;;3.68;95.76;96153.41;5059419;28;20260;-68
2022/01/31 09:22:19;;;;;;;1.77;1.23;;;;;;;3.79;95.29;96151.22;5056746;28;20676;-68
2022/01/31 09:24:44;;;;;;;1.30;1.30;;;;;;;4.00;94.79;96163.97;5057418;28;20205;-68
2022/01/31 09:27:11;;;;;;;2.10;1.23;;;;;;;4.28;92.79;96135.22;5054412;28;20186;-68
2022/01/31 09:29:36;;;;;;;2.63;1.10;;;;;;;4.46;91.84;96132.75;5064303;28;20193;-68
2022/01/31 09:32:04;;;;;;;1.43;1.20;;;;;;;4.53;90.38;96159.50;5055031;28;20196;-68
2022/01/31 09:34:33;;;;;;;2.67;1.20;;;;;;;4.74;88.46;96161.00;5063887;28;20206;-68
2022/01/31 09:36:59;;;;;;;1.00;1.00;;;;;;;4.74;86.11;96167.00;5065502;28;20189;-68
2022/01/31 09:39:30;;;;;;;1.20;1.10;;;;;;;4.82;86.26;96177.19;5073483;28;20275;-68
2022/01/31 09:41:57;;;;;;;1.23;1.13;;;;;;;4.64;86.66;96168.44;5056833;28;20174;-68
2022/01/31 09:44:43;;;;;;;1.23;1.00;;;;;;;4.81;86.82;96179.97;5049788;28;20290;-69
2022/01/31 09:49:46;;;;;;;2.00;1.23;;;;;;;4.74;85.03;96168.81;5071833;28;20200;-68
2022/01/31 09:52:13;;;;;;;2.73;1.17;;;;;;;4.60;85.32;96166.25;5058358;28;20181;-68
2022/01/31 09:54:38;;;;;;;1.30;1.20;;;;;;;4.57;85.69;96166.66;5059015;28;20185;-69
2022/01/31 09:57:04;;;;;;;4.10;1.80;;;;;;;4.69;85.55;96156.44;5072903;28;20216;-70
2022/01/31 09:59:30;;;;;;;3.47;1.60;;;;;;;4.56;85.52;96164.28;5054985;28;20193;-69
2022/01/31 10:01:57;;;;;;;3.60;1.47;;;;;;;4.58;84.75;96157.06;5070699;28;20177;-69
2022/01/31 10:04:24;;;;;;;1.43;1.17;;;;;;;4.69;85.02;96155.63;5056508;28;20642;-68
2022/01/31 10:06:56;;;;;;;2.53;1.40;;;;;;;4.72;84.11;96144.88;5061003;28;20189;-68
2022/01/31 10:09:28;;;;;;;5.43;1.63;;;;;;;4.51;83.52;96154.50;5066122;28;20213;-68
2022/01/31 10:12:24;;;;;;;4.77;1.60;;;;;;;4.30;85.74;96148.75;5072642;28;20189;-70
2022/01/31 10:17:37;;;;;;;5.20;1.73;;;;;;;4.30;84.18;96172.09;5066389;28;20220;-68
2022/01/31 10:20:14;;;;;;;2.70;1.80;;;;;;;4.41;84.61;96161.91;5053545;28;20186;-68
2022/01/31 10:22:41;;;;;;;12.40;1.87;;;;;;;4.35;83.48;96164.50;5054312;28;20186;-68
2022/01/31 10:25:09;;;;;;;1.73;1.10;;;;;;;4.30;83.32;96164.31;5035081;28;20328;-68
2022/01/31 10:27:36;;;;;;;1.87;1.40;;;;;;;4.44;83.60;96156.34;5071785;28;20216;-68
2022/01/31 10:30:10;;;;;;;1.23;1.23;;;;;;;4.62;82.95;96160.88;5064843;28;20210;-68
2022/01/31 10:32:37;;;;;;;3.77;1.40;;;;;;;4.71;83.22;96144.06;5053294;28;20174;-67
2022/01/31 10:35:08;;;;;;;4.40;1.60;;;;;;;4.81;80.67;96147.03;5053066;28;20216;-68
2022/01/31 10:37:36;;;;;;;3.17;1.40;;;;;;;4.87;81.01;96141.00;5071146;28;20209;-68
2022/01/31 10:53:42;;;;;;;1.53;1.43;;;;;;;4.94;79.29;96115.81;5052908;28;20209;-68
2022/01/31 10:56:07;;;;;;;2.20;1.43;;;;;;;4.96;77.82;96128.56;5057785;28;20185;-68
2022/01/31 10:58:33;;;;;;;3.40;1.37;;;;;;;5.14;76.58;96120.09;5065045;28;20217;-68
2022/01/31 11:01:12;;;;;;;1.90;1.40;;;;;;;4.95;76.74;96114.81;5056221;28;20179;-68
2022/01/31 11:03:38;;;;;;;1.30;1.20;;;;;;;5.13;77.04;96111.50;5034678;28;20185;-68
2022/01/31 11:06:10;;;;;;;3.57;1.40;;;;;;;4.97;76.00;96096.41;5053315;28;20255;-68
2022/01/31 11:08:37;;;;;;;1.40;1.30;;;;;;;5.00;76.93;96102.00;5067003;28;20212;-69
2022/01/31 11:11:03;;;;;;;2.03;1.20;;;;;;;5.08;76.87;96097.53;5056362;28;20193;-68
2022/01/31 11:13:31;;;;;;;2.80;1.57;;;;;;;5.25;75.74;96089.06;5061959;28;20632;-68
2022/01/31 11:15:57;;;;;;;3.30;1.77;;;;;;;4.84;76.08;96105.09;5061993;28;20330;-68
2022/01/31 11:18:24;;;;;;;1.30;1.20;;;;;;;4.96;75.62;96087.03;5069154;28;20197;-68
2022/01/31 11:20:58;;;;;;;2.57;1.40;;;;;;;5.26;75.19;96092.44;5058770;28;20182;-67
2022/01/31 11:23:28;;;;;;;1.40;1.30;;;;;;;5.57;73.81;96089.84;5048995;28;20181;-68
2022/01/31 11:25:59;;;;;;;2.90;1.50;;;;;;;5.33;73.86;96082.81;5071326;28;20185;-67
2022/01/31 11:28:29;;;;;;;1.70;1.27;;;;;;;5.53;73.96;96093.06;5066057;28;20634;-68
2022/01/31 11:30:54;;;;;;;2.67;1.20;;;;;;;5.47;74.97;96078.28;5053264;28;20182;-68
2022/01/31 11:33:22;;;;;;;3.43;1.43;;;;;;;5.22;75.30;96080.88;5071908;28;20541;-67
2022/01/31 11:35:48;;;;;;;5.20;1.50;;;;;;;5.06;76.38;96092.59;5069466;28;20668;-66
2022/01/31 11:38:15;;;;;;;1.20;1.10;;;;;;;5.14;76.50;96084.53;5071389;28;20209;-66
2022/01/31 11:40:41;;;;;;;3.23;1.37;;;;;;;5.20;76.81;96098.47;5054682;28;20725;-66
2022/01/31 11:43:08;;;;;;;2.63;1.20;;;;;;;4.95;77.59;96111.41;5057929;28;20182;-67
2022/01/31 11:45:37;;;;;;;1.50;1.40;;;;;;;4.82;78.52;96103.69;5052068;28;20182;-67
2022/01/31 11:48:05;;;;;;;2.10;1.23;;;;;;;4.81;79.15;96089.91;5052407;28;20670;-67
2022/01/31 11:50:31;;;;;;;1.20;1.07;;;;;;;4.81;80.01;96100.28;5054100;28;20277;-68
2022/01/31 11:53:00;;;;;;;2.23;1.10;;;;;;;4.63;79.99;96099.38;5068294;28;20238;-68
2022/01/31 11:55:33;;;;;;;1.87;1.37;;;;;;;4.84;80.26;96099.88;5053739;28;20213;-67
2022/01/31 11:57:58;;;;;;;4.90;1.30;;;;;;;4.59;80.47;96096.41;5056376;28;20217;-68
2022/01/31 12:00:27;;;;;;;3.07;1.30;;;;;;;4.48;80.20;96104.81;5057216;28;20190;-68